sensor_id;sensor_type;location;lat;lon;timestamp;pressure;altitude;pressure_sealevel;temperature;humidity
32759;BME280;19125;52.360;9.974;2023-11-21T00:01:15;-14018.72;;;-145.17;71.84
32759;BME280;19125;52.360;9.974;2023-11-21T00:03:40;-14018.72;;;-145.17;71.88
32759;BME280;19125;52.360;9.974;2023-11-21T00:06:06;-14266.31;;;-145.17;71.98
32759;BME280;19125;52.360;9.974;2023-11-21T00:08:34;-14266.31;;;-145.17;72.25
32759;BME280;19125;52.360;9.974;2023-11-21T00:11:00;-14266.31;;;-145.17;72.35
32759;BME280;19125;52.360;9.974;2023-11-21T00:13:25;-14266.31;;;-145.17;72.14
32759;BME280;19125;52.360;9.974;2023-11-21T00:15:51;-14266.31;;;-145.17;71.77
32759;BME280;19125;52.360;9.974;2023-11-21T00:18:16;-14513.88;;;-145.17;72.02
32759;BME280;19125;52.360;9.974;2023-11-21T00:20:42;-14513.88;;;-145.17;72.21
32759;BME280;19125;52.360;9.974;2023-11-21T00:23:07;-14513.88;;;-145.17;72.07
32759;BME280;19125;52.360;9.974;2023-11-21T00:25:32;-14513.88;;;-145.17;72.47
32759;BME280;19125;52.360;9.974;2023-11-21T00:27:58;-14761.44;;;-145.17;71.85
32759;BME280;19125;52.360;9.974;2023-11-21T00:30:23;-14761.44;;;-145.17;72.53
32759;BME280;19125;52.360;9.974;2023-11-21T00:32:49;-14761.44;;;-145.17;72.47
32759;BME280;19125;52.360;9.974;2023-11-21T00:35:15;-14761.44;;;-145.17;72.59
32759;BME280;19125;52.360;9.974;2023-11-21T00:37:41;-14761.44;;;-145.17;71.91
32759;BME280;19125;52.360;9.974;2023-11-21T00:40:08;-15009.00;;;-145.17;72.70
32759;BME280;19125;52.360;9.974;2023-11-21T00:42:34;-15009.00;;;-145.17;72.53
32759;BME280;19125;52.360;9.974;2023-11-21T00:44:59;-15009.00;;;-145.17;72.32
32759;BME280;19125;52.360;9.974;2023-11-21T00:47:25;-15009.00;;;-145.17;72.73
32759;BME280;19125;52.360;9.974;2023-11-21T00:49:50;-15009.00;;;-145.17;72.58
32759;BME280;19125;52.360;9.974;2023-11-21T00:52:15;-15009.00;;;-145.17;72.47
32759;BME280;19125;52.360;9.974;2023-11-21T00:54:41;-15009.00;;;-145.17;72.41
32759;BME280;19125;52.360;9.974;2023-11-21T00:57:07;-15009.00;;;-145.17;73.00
32759;BME280;19125;52.360;9.974;2023-11-21T00:59:33;-15009.00;;;-145.17;72.92
32759;BME280;19125;52.360;9.974;2023-11-21T01:02:00;-15009.00;;;-145.17;72.88
32759;BME280;19125;52.360;9.974;2023-11-21T01:04:26;-15010.44;;;-145.17;72.92
32759;BME280;19125;52.360;9.974;2023-11-21T01:06:52;-15010.44;;;-145.17;73.34
32759;BME280;19125;52.360;9.974;2023-11-21T01:09:17;-15010.44;;;-145.17;73.41
32759;BME280;19125;52.360;9.974;2023-11-21T01:11:43;-15010.44;;;-145.17;72.95
32759;BME280;19125;52.360;9.974;2023-11-21T01:14:09;-15010.44;;;-145.17;73.04
32759;BME280;19125;52.360;9.974;2023-11-21T01:16:35;-15010.44;;;-145.17;73.19
32759;BME280;19125;52.360;9.974;2023-11-21T01:19:01;-15010.44;;;-145.17;73.58
32759;BME280;19125;52.360;9.974;2023-11-21T01:21:27;-15010.44;;;-145.17;73.25
32759;BME280;19125;52.360;9.974;2023-11-21T01:23:53;-15010.44;;;-145.17;73.21
32759;BME280;19125;52.360;9.974;2023-11-21T01:26:20;-15010.44;;;-145.17;73.19
32759;BME280;19125;52.360;9.974;2023-11-21T01:28:45;-15010.44;;;-145.17;73.46
32759;BME280;19125;52.360;9.974;2023-11-21T01:31:14;-15010.44;;;-145.17;73.79
32759;BME280;19125;52.360;9.974;2023-11-21T01:33:39;-15010.44;;;-145.17;73.71
32759;BME280;19125;52.360;9.974;2023-11-21T01:36:05;-15010.44;;;-145.17;73.23
32759;BME280;19125;52.360;9.974;2023-11-21T01:38:31;-15010.44;;;-145.17;73.55
32759;BME280;19125;52.360;9.974;2023-11-21T01:40:57;-15010.44;;;-145.17;73.78
32759;BME280;19125;52.360;9.974;2023-11-21T01:43:22;-15010.44;;;-145.17;73.27
32759;BME280;19125;52.360;9.974;2023-11-21T01:45:48;-15010.44;;;-145.17;73.52
32759;BME280;19125;52.360;9.974;2023-11-21T01:48:13;-15010.44;;;-145.17;73.60
32759;BME280;19125;52.360;9.974;2023-11-21T01:50:39;-15010.44;;;-145.17;73.81
32759;BME280;19125;52.360;9.974;2023-11-21T01:53:05;-15010.44;;;-145.17;73.72
32759;BME280;19125;52.360;9.974;2023-11-21T01:55:32;-15010.44;;;-145.17;73.83
32759;BME280;19125;52.360;9.974;2023-11-21T01:57:59;-15010.44;;;-145.17;73.93
32759;BME280;19125;52.360;9.974;2023-11-21T02:00:26;-15010.44;;;-145.17;73.91
32759;BME280;19125;52.360;9.974;2023-11-21T02:02:53;-15010.44;;;-145.17;73.91
32759;BME280;19125;52.360;9.974;2023-11-21T02:05:19;-15010.44;;;-145.17;74.03
32759;BME280;19125;52.360;9.974;2023-11-21T02:07:45;-15010.44;;;-145.17;74.18
32759;BME280;19125;52.360;9.974;2023-11-21T02:10:14;-15010.44;;;-145.17;74.17
32759;BME280;19125;52.360;9.974;2023-11-21T02:12:40;-15010.44;;;-145.17;74.12
32759;BME280;19125;52.360;9.974;2023-11-21T02:15:08;-15010.44;;;-145.17;73.88
32759;BME280;19125;52.360;9.974;2023-11-21T02:17:42;-15010.44;;;-145.17;73.88
32759;BME280;19125;52.360;9.974;2023-11-21T02:20:13;-15010.44;;;-145.17;74.59
32759;BME280;19125;52.360;9.974;2023-11-21T02:22:44;-15010.44;;;-145.17;74.16
32759;BME280;19125;52.360;9.974;2023-11-21T02:25:10;-15010.44;;;-145.17;74.12
32759;BME280;19125;52.360;9.974;2023-11-21T02:27:36;-15010.44;;;-145.17;74.03
32759;BME280;19125;52.360;9.974;2023-11-21T02:30:03;-15010.44;;;-145.17;74.32
32759;BME280;19125;52.360;9.974;2023-11-21T02:32:29;-15010.44;;;-145.17;74.36
32759;BME280;19125;52.360;9.974;2023-11-21T02:34:57;-15010.44;;;-145.17;74.07
32759;BME280;19125;52.360;9.974;2023-11-21T02:37:26;-15010.44;;;-145.17;74.65
32759;BME280;19125;52.360;9.974;2023-11-21T02:39:51;-15010.44;;;-145.17;74.61
32759;BME280;19125;52.360;9.974;2023-11-21T02:42:17;-15010.44;;;-145.17;74.65
32759;BME280;19125;52.360;9.974;2023-11-21T02:44:43;-15010.44;;;-145.17;74.41
32759;BME280;19125;52.360;9.974;2023-11-21T02:47:09;-15010.44;;;-145.17;74.99
32759;BME280;19125;52.360;9.974;2023-11-21T02:49:34;-15010.44;;;-145.17;74.34
32759;BME280;19125;52.360;9.974;2023-11-21T02:52:01;-15010.44;;;-145.17;74.61
32759;BME280;19125;52.360;9.974;2023-11-21T02:54:26;-15010.44;;;-145.17;74.75
32759;BME280;19125;52.360;9.974;2023-11-21T02:56:52;-15010.44;;;-145.17;74.58
32759;BME280;19125;52.360;9.974;2023-11-21T02:59:18;-15010.44;;;-145.17;74.94
32759;BME280;19125;52.360;9.974;2023-11-21T03:01:44;-15010.44;;;-145.17;74.79
32759;BME280;19125;52.360;9.974;2023-11-21T03:04:10;-15010.44;;;-145.17;74.77
32759;BME280;19125;52.360;9.974;2023-11-21T03:06:35;-15010.44;;;-145.17;75.02
32759;BME280;19125;52.360;9.974;2023-11-21T03:09:00;-15010.44;;;-145.17;74.95
32759;BME280;19125;52.360;9.974;2023-11-21T03:11:26;-15010.44;;;-145.17;75.01
32759;BME280;19125;52.360;9.974;2023-11-21T03:13:51;-15010.44;;;-145.17;75.45
32759;BME280;19125;52.360;9.974;2023-11-21T03:16:16;-15010.44;;;-145.17;75.17
32759;BME280;19125;52.360;9.974;2023-11-21T03:18:42;-15010.44;;;-145.17;75.37
32759;BME280;19125;52.360;9.974;2023-11-21T03:21:08;-15010.44;;;-145.17;75.38
32759;BME280;19125;52.360;9.974;2023-11-21T03:23:34;-15010.44;;;-145.17;75.44
32759;BME280;19125;52.360;9.974;2023-11-21T03:26:00;-15010.44;;;-145.17;75.62
32759;BME280;19125;52.360;9.974;2023-11-21T03:28:26;-15010.44;;;-145.17;75.40
32759;BME280;19125;52.360;9.974;2023-11-21T03:30:55;-15010.44;;;-145.17;75.47
32759;BME280;19125;52.360;9.974;2023-11-21T03:33:21;-15010.44;;;-145.17;75.28
32759;BME280;19125;52.360;9.974;2023-11-21T03:35:47;-15010.44;;;-145.17;75.45
32759;BME280;19125;52.360;9.974;2023-11-21T03:38:13;-15010.44;;;-145.17;75.82
32759;BME280;19125;52.360;9.974;2023-11-21T03:40:38;-15010.44;;;-145.17;75.31
32759;BME280;19125;52.360;9.974;2023-11-21T03:43:05;-15010.44;;;-145.17;75.66
32759;BME280;19125;52.360;9.974;2023-11-21T03:45:31;-15010.44;;;-145.17;75.97
32759;BME280;19125;52.360;9.974;2023-11-21T03:47:56;-15010.44;;;-145.17;75.84
32759;BME280;19125;52.360;9.974;2023-11-21T03:50:21;-15010.44;;;-145.17;76.10
32759;BME280;19125;52.360;9.974;2023-11-21T03:52:47;-15010.44;;;-145.17;76.02
32759;BME280;19125;52.360;9.974;2023-11-21T03:55:12;-15010.44;;;-145.17;75.91
32759;BME280;19125;52.360;9.974;2023-11-21T03:57:38;-15010.44;;;-145.17;76.01
32759;BME280;19125;52.360;9.974;2023-11-21T04:00:04;-15010.44;;;-145.17;75.79
32759;BME280;19125;52.360;9.974;2023-11-21T04:02:33;-15010.44;;;-145.17;75.70
32759;BME280;19125;52.360;9.974;2023-11-21T04:04:58;-15010.44;;;-145.17;75.95
32759;BME280;19125;52.360;9.974;2023-11-21T04:07:24;-15010.44;;;-145.17;75.80
32759;BME280;19125;52.360;9.974;2023-11-21T04:09:49;-15010.44;;;-145.17;76.26
32759;BME280;19125;52.360;9.974;2023-11-21T04:12:15;-15010.44;;;-145.17;76.06
32759;BME280;19125;52.360;9.974;2023-11-21T04:14:40;-15010.44;;;-145.17;75.99
32759;BME280;19125;52.360;9.974;2023-11-21T04:17:06;-15010.44;;;-145.17;76.69
32759;BME280;19125;52.360;9.974;2023-11-21T04:19:31;-15010.44;;;-145.17;76.03
32759;BME280;19125;52.360;9.974;2023-11-21T04:21:56;-15010.44;;;-145.17;76.45
32759;BME280;19125;52.360;9.974;2023-11-21T04:24:22;-15010.44;;;-145.17;76.45
32759;BME280;19125;52.360;9.974;2023-11-21T04:26:47;-15010.44;;;-145.17;76.38
32759;BME280;19125;52.360;9.974;2023-11-21T04:29:12;-15010.44;;;-145.17;76.38
32759;BME280;19125;52.360;9.974;2023-11-21T04:31:38;-15010.44;;;-145.17;76.38
32759;BME280;19125;52.360;9.974;2023-11-21T04:34:03;-15010.44;;;-145.17;76.62
32759;BME280;19125;52.360;9.974;2023-11-21T04:36:29;-15010.44;;;-145.17;76.80
32759;BME280;19125;52.360;9.974;2023-11-21T04:38:56;-15010.44;;;-145.17;76.76
32759;BME280;19125;52.360;9.974;2023-11-21T04:41:21;-15010.44;;;-145.17;76.58
32759;BME280;19125;52.360;9.974;2023-11-21T04:43:46;-15010.44;;;-145.17;76.52
32759;BME280;19125;52.360;9.974;2023-11-21T04:46:12;-15010.44;;;-145.17;76.88
32759;BME280;19125;52.360;9.974;2023-11-21T04:48:37;-15010.44;;;-145.17;76.70
32759;BME280;19125;52.360;9.974;2023-11-21T04:51:03;-15010.44;;;-145.17;76.84
32759;BME280;19125;52.360;9.974;2023-11-21T04:53:29;-15010.44;;;-145.17;76.53
32759;BME280;19125;52.360;9.974;2023-11-21T04:55:55;-15010.44;;;-145.17;76.96
32759;BME280;19125;52.360;9.974;2023-11-21T04:58:20;-15010.44;;;-145.17;76.70
32759;BME280;19125;52.360;9.974;2023-11-21T05:00:46;-15010.44;;;-145.17;77.26
32759;BME280;19125;52.360;9.974;2023-11-21T05:03:11;-15010.44;;;-145.17;77.33
32759;BME280;19125;52.360;9.974;2023-11-21T05:05:37;-15010.44;;;-145.17;77.19
32759;BME280;19125;52.360;9.974;2023-11-21T05:08:02;-15010.44;;;-145.17;77.30
32759;BME280;19125;52.360;9.974;2023-11-21T05:10:28;-15010.44;;;-145.17;77.06
32759;BME280;19125;52.360;9.974;2023-11-21T05:12:54;-15010.44;;;-145.17;77.38
32759;BME280;19125;52.360;9.974;2023-11-21T05:15:20;-15010.44;;;-145.17;77.34
32759;BME280;19125;52.360;9.974;2023-11-21T05:17:46;-15010.44;;;-145.17;77.71
32759;BME280;19125;52.360;9.974;2023-11-21T05:20:14;-15010.44;;;-145.17;77.52
32759;BME280;19125;52.360;9.974;2023-11-21T05:22:43;-15010.44;;;-145.17;77.52
32759;BME280;19125;52.360;9.974;2023-11-21T05:25:08;-15010.44;;;-145.17;77.73
32759;BME280;19125;52.360;9.974;2023-11-21T05:27:34;-15010.44;;;-145.17;77.51
32759;BME280;19125;52.360;9.974;2023-11-21T05:30:04;-15010.44;;;-145.17;77.79
32759;BME280;19125;52.360;9.974;2023-11-21T05:32:37;-15010.44;;;-145.17;77.65
32759;BME280;19125;52.360;9.974;2023-11-21T05:35:03;-15010.44;;;-145.17;78.08
32759;BME280;19125;52.360;9.974;2023-11-21T05:37:29;-15010.44;;;-145.17;78.24
32759;BME280;19125;52.360;9.974;2023-11-21T05:39:55;-15010.44;;;-145.17;78.39
32759;BME280;19125;52.360;9.974;2023-11-21T05:42:24;-15010.44;;;-145.17;78.14
32759;BME280;19125;52.360;9.974;2023-11-21T05:44:49;-15010.44;;;-145.17;77.79
32759;BME280;19125;52.360;9.974;2023-11-21T05:47:14;-15010.44;;;-145.17;77.82
32759;BME280;19125;52.360;9.974;2023-11-21T05:49:40;-15010.44;;;-145.17;77.85
32759;BME280;19125;52.360;9.974;2023-11-21T05:52:05;-15010.44;;;-145.17;78.35
32759;BME280;19125;52.360;9.974;2023-11-21T05:54:31;-15010.44;;;-145.17;78.11
32759;BME280;19125;52.360;9.974;2023-11-21T05:56:56;-15010.44;;;-145.17;78.70
32759;BME280;19125;52.360;9.974;2023-11-21T05:59:22;-15010.44;;;-145.17;78.25
32759;BME280;19125;52.360;9.974;2023-11-21T06:01:48;-15010.44;;;-145.17;78.73
32759;BME280;19125;52.360;9.974;2023-11-21T06:04:13;-15010.44;;;-145.17;78.79
32759;BME280;19125;52.360;9.974;2023-11-21T06:06:38;-15010.44;;;-145.17;78.77
32759;BME280;19125;52.360;9.974;2023-11-21T06:09:04;-15010.44;;;-145.17;78.97
32759;BME280;19125;52.360;9.974;2023-11-21T06:11:31;-15010.44;;;-145.17;78.53
32759;BME280;19125;52.360;9.974;2023-11-21T06:13:56;-15010.44;;;-145.17;78.56
32759;BME280;19125;52.360;9.974;2023-11-21T06:16:22;-15010.44;;;-145.17;79.49
32759;BME280;19125;52.360;9.974;2023-11-21T06:18:47;-15010.44;;;-145.17;79.20
32759;BME280;19125;52.360;9.974;2023-11-21T06:21:12;-15010.44;;;-145.17;78.89
32759;BME280;19125;52.360;9.974;2023-11-21T06:23:38;-15010.44;;;-145.17;78.87
32759;BME280;19125;52.360;9.974;2023-11-21T06:26:04;-15010.44;;;-145.17;79.64
32759;BME280;19125;52.360;9.974;2023-11-21T06:28:30;-15010.44;;;-145.17;79.00
32759;BME280;19125;52.360;9.974;2023-11-21T06:30:56;-15010.44;;;-145.17;79.10
32759;BME280;19125;52.360;9.974;2023-11-21T06:33:26;-15010.44;;;-145.17;78.99
32759;BME280;19125;52.360;9.974;2023-11-21T06:35:52;-15010.44;;;-145.17;79.46
32759;BME280;19125;52.360;9.974;2023-11-21T06:38:18;-15010.44;;;-145.17;79.30
32759;BME280;19125;52.360;9.974;2023-11-21T06:40:43;-15010.44;;;-145.17;79.51
32759;BME280;19125;52.360;9.974;2023-11-21T06:43:09;-15010.44;;;-145.17;78.93
32759;BME280;19125;52.360;9.974;2023-11-21T06:45:35;-15010.44;;;-145.17;78.99
32759;BME280;19125;52.360;9.974;2023-11-21T06:48:01;-15010.44;;;-145.17;79.19
32759;BME280;19125;52.360;9.974;2023-11-21T06:50:26;-15010.44;;;-145.17;79.22
32759;BME280;19125;52.360;9.974;2023-11-21T06:52:52;-15010.44;;;-145.17;79.59
32759;BME280;19125;52.360;9.974;2023-11-21T06:55:17;-15010.44;;;-145.17;79.44
32759;BME280;19125;52.360;9.974;2023-11-21T06:57:42;-15010.44;;;-145.17;79.59
32759;BME280;19125;52.360;9.974;2023-11-21T07:00:09;-15010.44;;;-145.17;79.74
32759;BME280;19125;52.360;9.974;2023-11-21T07:02:34;-15010.44;;;-145.17;79.11
32759;BME280;19125;52.360;9.974;2023-11-21T07:05:00;-15010.44;;;-145.17;79.69
32759;BME280;19125;52.360;9.974;2023-11-21T07:07:25;-15010.44;;;-145.17;79.57
32759;BME280;19125;52.360;9.974;2023-11-21T07:09:50;-15010.44;;;-145.17;79.42
32759;BME280;19125;52.360;9.974;2023-11-21T07:12:17;-15010.44;;;-145.17;79.22
32759;BME280;19125;52.360;9.974;2023-11-21T07:14:43;-15010.44;;;-145.17;79.71
32759;BME280;19125;52.360;9.974;2023-11-21T07:17:10;-15010.44;;;-145.17;79.82
32759;BME280;19125;52.360;9.974;2023-11-21T07:19:37;-15010.44;;;-145.17;79.51
32759;BME280;19125;52.360;9.974;2023-11-21T07:22:03;-15010.44;;;-145.17;79.71
32759;BME280;19125;52.360;9.974;2023-11-21T07:24:30;-15010.44;;;-145.17;79.56
32759;BME280;19125;52.360;9.974;2023-11-21T07:26:57;-15010.44;;;-145.17;79.42
32759;BME280;19125;52.360;9.974;2023-11-21T07:29:23;-15010.44;;;-145.17;79.57
32759;BME280;19125;52.360;9.974;2023-11-21T07:31:51;-15010.44;;;-145.17;79.68
32759;BME280;19125;52.360;9.974;2023-11-21T07:34:16;-15010.44;;;-145.17;79.49
32759;BME280;19125;52.360;9.974;2023-11-21T07:36:42;-15010.44;;;-145.17;79.68
32759;BME280;19125;52.360;9.974;2023-11-21T07:39:07;-15010.44;;;-145.17;79.66
32759;BME280;19125;52.360;9.974;2023-11-21T07:41:33;-15010.44;;;-145.17;79.16
32759;BME280;19125;52.360;9.974;2023-11-21T07:43:58;-15010.44;;;-145.17;79.76
32759;BME280;19125;52.360;9.974;2023-11-21T07:46:24;-15010.44;;;-145.17;79.77
32759;BME280;19125;52.360;9.974;2023-11-21T07:48:51;-15010.44;;;-145.17;79.58
32759;BME280;19125;52.360;9.974;2023-11-21T07:51:17;-15010.44;;;-145.17;79.92
32759;BME280;19125;52.360;9.974;2023-11-21T07:53:42;-15010.44;;;-145.17;79.94
32759;BME280;19125;52.360;9.974;2023-11-21T07:56:08;-15010.44;;;-145.17;79.63
32759;BME280;19125;52.360;9.974;2023-11-21T07:58:35;-15010.44;;;-145.17;79.49
32759;BME280;19125;52.360;9.974;2023-11-21T08:01:01;-15010.44;;;-145.17;79.65
32759;BME280;19125;52.360;9.974;2023-11-21T08:03:26;-15010.44;;;-145.17;80.19
32759;BME280;19125;52.360;9.974;2023-11-21T08:05:52;-15010.44;;;-145.17;80.07
32759;BME280;19125;52.360;9.974;2023-11-21T08:08:18;-15010.44;;;-145.17;80.07
32759;BME280;19125;52.360;9.974;2023-11-21T08:10:47;-15010.44;;;-145.17;79.87
32759;BME280;19125;52.360;9.974;2023-11-21T08:13:13;-15010.44;;;-145.17;79.69
32759;BME280;19125;52.360;9.974;2023-11-21T08:15:42;-15010.44;;;-145.17;79.82
32759;BME280;19125;52.360;9.974;2023-11-21T08:18:11;-15010.44;;;-145.17;80.07
32759;BME280;19125;52.360;9.974;2023-11-21T08:20:38;-15010.44;;;-145.17;79.65
32759;BME280;19125;52.360;9.974;2023-11-21T08:23:05;-15010.44;;;-145.17;80.05
32759;BME280;19125;52.360;9.974;2023-11-21T08:25:31;-15010.44;;;-145.17;79.81
32759;BME280;19125;52.360;9.974;2023-11-21T08:27:57;-15010.44;;;-145.17;79.71
32759;BME280;19125;52.360;9.974;2023-11-21T08:30:22;-15010.44;;;-145.17;80.03
32759;BME280;19125;52.360;9.974;2023-11-21T08:32:49;-15010.44;;;-145.17;79.87
32759;BME280;19125;52.360;9.974;2023-11-21T08:35:15;-15010.44;;;-145.17;80.01
32759;BME280;19125;52.360;9.974;2023-11-21T08:37:41;-15010.44;;;-145.17;79.42
32759;BME280;19125;52.360;9.974;2023-11-21T08:40:07;-15010.44;;;-145.17;79.60
32759;BME280;19125;52.360;9.974;2023-11-21T08:42:37;-15010.44;;;-145.17;79.26
32759;BME280;19125;52.360;9.974;2023-11-21T08:45:03;-15010.44;;;-145.17;79.04
32759;BME280;19125;52.360;9.974;2023-11-21T08:47:28;-15010.44;;;-145.17;79.10
32759;BME280;19125;52.360;9.974;2023-11-21T08:49:54;-15010.44;;;-145.17;78.95
32759;BME280;19125;52.360;9.974;2023-11-21T08:52:19;-15010.44;;;-145.17;78.82
32759;BME280;19125;52.360;9.974;2023-11-21T08:54:48;-15010.44;;;-145.17;78.59
32759;BME280;19125;52.360;9.974;2023-11-21T08:57:21;-15010.44;;;-145.17;78.13
32759;BME280;19125;52.360;9.974;2023-11-21T08:59:47;-15010.44;;;-145.17;78.36
32759;BME280;19125;52.360;9.974;2023-11-21T09:02:12;-15010.44;;;-145.17;78.02
32759;BME280;19125;52.360;9.974;2023-11-21T09:04:37;-15010.44;;;-145.17;77.62
32759;BME280;19125;52.360;9.974;2023-11-21T09:07:03;-15010.44;;;-145.17;77.17
32759;BME280;19125;52.360;9.974;2023-11-21T09:09:28;-15010.44;;;-145.17;76.94
32759;BME280;19125;52.360;9.974;2023-11-21T09:11:55;-15010.44;;;-145.17;76.29
32759;BME280;19125;52.360;9.974;2023-11-21T09:14:20;-15010.44;;;-145.17;75.76
32759;BME280;19125;52.360;9.974;2023-11-21T09:16:46;-15010.44;;;-145.17;75.37
32759;BME280;19125;52.360;9.974;2023-11-21T09:19:13;-15010.44;;;-145.17;75.04
32759;BME280;19125;52.360;9.974;2023-11-21T09:21:43;-15010.44;;;-145.17;74.43
32759;BME280;19125;52.360;9.974;2023-11-21T09:24:09;-15010.44;;;-145.17;74.08
32759;BME280;19125;52.360;9.974;2023-11-21T09:26:34;-15010.44;;;-145.17;73.41
32759;BME280;19125;52.360;9.974;2023-11-21T09:28:59;-15010.44;;;-145.17;73.19
32759;BME280;19125;52.360;9.974;2023-11-21T09:31:25;-15010.44;;;-145.17;72.26
32759;BME280;19125;52.360;9.974;2023-11-21T09:33:52;-15010.44;;;-145.17;72.23
32759;BME280;19125;52.360;9.974;2023-11-21T09:36:18;-14513.88;;;-145.17;71.15
32759;BME280;19125;52.360;9.974;2023-11-21T09:38:43;-13275.88;;;-145.17;70.56
32759;BME280;19125;52.360;9.974;2023-11-21T09:41:21;-11541.97;;;-145.17;70.14
32759;BME280;19125;52.360;9.974;2023-11-21T09:43:47;-9559.38;;;-145.17;69.92
32759;BME280;19125;52.360;9.974;2023-11-21T09:46:17;-7823.78;;;-145.17;69.31
32759;BME280;19125;52.360;9.974;2023-11-21T09:48:50;-5591.16;;;-145.17;68.72
32759;BME280;19125;52.360;9.974;2023-11-21T09:51:19;-3108.94;;;-145.17;68.17
32759;BME280;19125;52.360;9.974;2023-11-21T09:53:47;120.34;;;-145.17;67.81
32759;BME280;19125;52.360;9.974;2023-11-21T09:56:14;3103.63;;;-145.17;67.60
32759;BME280;19125;52.360;9.974;2023-11-21T09:58:44;6338.13;;;-145.17;66.84
32759;BME280;19125;52.360;9.974;2023-11-21T10:01:11;8828.06;;;-145.17;67.11
32759;BME280;19125;52.360;9.974;2023-11-21T10:03:37;11319.56;;;-145.17;66.68
32759;BME280;19125;52.360;9.974;2023-11-21T10:06:04;13812.69;;;-145.17;66.62
32759;BME280;19125;52.360;9.974;2023-11-21T10:08:31;16806.56;;;-145.17;66.17
32759;BME280;19125;52.360;9.974;2023-11-21T10:10:57;19303.19;;;-145.17;66.23
32759;BME280;19125;52.360;9.974;2023-11-21T10:13:24;21051.81;;;-145.17;65.96
32759;BME280;19125;52.360;9.974;2023-11-21T10:15:55;23301.19;;;-145.17;65.95
32759;BME280;19125;52.360;9.974;2023-11-21T10:18:26;25301.69;;;-145.17;66.01
32759;BME280;19125;52.360;9.974;2023-11-21T10:20:52;26552.53;;;-145.17;65.56
32759;BME280;19125;52.360;9.974;2023-11-21T10:23:22;28554.75;;;-145.17;65.54
32759;BME280;19125;52.360;9.974;2023-11-21T10:25:47;32562.19;;;-145.17;65.13
32759;BME280;19125;52.360;9.974;2023-11-21T10:28:14;38330.09;;;-145.17;64.97
32759;BME280;19125;52.360;9.974;2023-11-21T10:30:40;42347.56;;;-145.17;64.82
32759;BME280;19125;52.360;9.974;2023-11-21T10:33:07;47123.63;;;-145.17;63.77
32759;BME280;19125;52.360;9.974;2023-11-21T10:38:12;58710.69;;;-145.17;63.68
32759;BME280;19125;52.360;9.974;2023-11-21T10:40:41;65910.59;;;-145.17;62.83
32759;BME280;19125;52.360;9.974;2023-11-21T10:43:08;72035.81;;;-145.17;62.24
32759;BME280;19125;52.360;9.974;2023-11-21T10:45:35;76825.94;;;-145.17;62.43
32759;BME280;19125;52.360;9.974;2023-11-21T10:48:05;80513.94;;;-145.17;62.28
32759;BME280;19125;52.360;9.974;2023-11-21T10:50:33;82967.91;;;-145.17;61.52
32759;BME280;19125;52.360;9.974;2023-11-21T10:53:01;84600.06;;;-145.17;61.47
32759;BME280;19125;52.360;9.974;2023-11-21T10:55:27;85599.94;;;-145.17;61.09
32759;BME280;19125;52.360;9.974;2023-11-21T10:57:53;86185.28;;;-145.17;60.91
32759;BME280;19125;52.360;9.974;2023-11-21T11:00:19;86435.31;;;-145.17;60.37
32759;BME280;19125;52.360;9.974;2023-11-21T11:02:51;86627.81;;;-145.17;60.93
32759;BME280;19125;52.360;9.974;2023-11-21T11:05:21;86810.41;;;-145.17;60.74
32759;BME280;19125;52.360;9.974;2023-11-21T11:07:48;86881.84;;;-145.17;60.90
32759;BME280;19125;52.360;9.974;2023-11-21T11:10:19;86824.28;;;-145.17;60.68
32759;BME280;19125;52.360;9.974;2023-11-21T11:12:48;86800.47;;;-145.17;61.13
32759;BME280;19125;52.360;9.974;2023-11-21T11:15:15;86903.69;;;-145.17;60.86
32759;BME280;19125;52.360;9.974;2023-11-21T11:17:41;86883.84;;;-145.17;61.19
32759;BME280;19125;52.360;9.974;2023-11-21T11:20:08;87058.50;;;-145.17;60.60
32759;BME280;19125;52.360;9.974;2023-11-21T11:22:44;87318.50;;;-145.17;60.49
32759;BME280;19125;52.360;9.974;2023-11-21T11:30:26;87594.44;;;-145.17;59.99
32759;BME280;19125;52.360;9.974;2023-11-21T11:33:14;87606.34;;;-145.17;59.64
32759;BME280;19125;52.360;9.974;2023-11-21T11:38:33;87600.38;;;-145.17;60.14
32759;BME280;19125;52.360;9.974;2023-11-21T11:41:02;87691.69;;;-145.17;59.34
32759;BME280;19125;52.360;9.974;2023-11-21T11:43:29;87709.56;;;-145.17;59.23
32759;BME280;19125;52.360;9.974;2023-11-21T11:45:56;87707.59;;;-145.17;58.95
32759;BME280;19125;52.360;9.974;2023-11-21T11:48:24;87759.19;;;-145.17;59.07
32759;BME280;19125;52.360;9.974;2023-11-21T11:53:44;87675.81;;;-145.17;58.43
32759;BME280;19125;52.360;9.974;2023-11-21T11:58:53;87818.75;;;-145.17;57.91
32759;BME280;19125;52.360;9.974;2023-11-21T12:01:19;87790.97;;;-145.17;57.57
32759;BME280;19125;52.360;9.974;2023-11-21T12:06:40;87818.75;;;-145.17;57.36
32759;BME280;19125;52.360;9.974;2023-11-21T12:09:06;87792.94;;;-145.17;57.32
32759;BME280;19125;52.360;9.974;2023-11-21T12:11:32;87790.97;;;-145.17;57.63
32759;BME280;19125;52.360;9.974;2023-11-21T12:13:58;87779.03;;;-145.17;57.46
32759;BME280;19125;52.360;9.974;2023-11-21T12:16:25;87796.91;;;-145.17;57.16
32759;BME280;19125;52.360;9.974;2023-11-21T12:18:53;87759.19;;;-145.17;56.97
32759;BME280;19125;52.360;9.974;2023-11-21T12:21:19;87717.50;;;-145.17;57.16
32759;BME280;19125;52.360;9.974;2023-11-21T12:23:47;87715.53;;;-145.17;57.22
32759;BME280;19125;52.360;9.974;2023-11-21T12:26:13;87794.94;;;-145.17;57.80
32759;BME280;19125;52.360;9.974;2023-11-21T12:28:39;87779.03;;;-145.17;57.39
32759;BME280;19125;52.360;9.974;2023-11-21T12:31:05;87850.50;;;-145.17;57.08
32759;BME280;19125;52.360;9.974;2023-11-21T12:33:41;87781.03;;;-145.17;57.14
32759;BME280;19125;52.360;9.974;2023-11-21T12:36:06;87751.25;;;-145.17;57.10
32759;BME280;19125;52.360;9.974;2023-11-21T12:38:36;87765.16;;;-145.17;56.60
32759;BME280;19125;52.360;9.974;2023-11-21T12:41:01;87755.22;;;-145.17;56.92
32759;BME280;19125;52.360;9.974;2023-11-21T12:43:26;87731.41;;;-145.17;56.73
32759;BME280;19125;52.360;9.974;2023-11-21T12:46:10;87715.53;;;-145.17;56.02
32759;BME280;19125;52.360;9.974;2023-11-21T12:48:43;87693.69;;;-145.17;56.04